Time;durP1;ratioP1;P1;durP2;ratioP2;P2;SDS_P1;SDS_P2;PMS_P1;PMS_P2;Temp;Humidity;BMP_temperature;BMP_pressure;BME280_temperature;BME280_humidity;BME280_pressure;Samples;Min_cycle;Max_cycle;Signal;HPM_P1;HPM_P2
2022/04/23 00:02:01;;;;;;;17.23;13.10;;;11.30;99.90;;;;;;5147694;27;20051;-68
2022/04/23 00:04:30;;;;;;;15.63;12.75;;;11.30;99.90;;;;;;5145222;27;20138;-69
2022/04/23 00:06:59;;;;;;;16.40;13.40;;;11.10;99.90;;;;;;5145924;27;20107;-69
2022/04/23 00:09:25;;;;;;;18.83;13.38;;;11.10;99.90;;;;;;5142533;27;20047;-69
2022/04/23 00:11:55;;;;;;;15.35;13.38;;;10.90;99.90;;;;;;5140629;27;20044;-69
2022/04/23 00:14:22;;;;;;;;;;;11.00;99.90;;;;;;5142253;27;20047;-69
2022/04/23 00:16:51;;;;;;;19.70;14.38;;;10.90;99.90;;;;;;5147201;27;20476;-69
2022/04/23 00:19:20;;;;;;;19.23;14.38;;;10.80;99.90;;;;;;5146261;27;20127;-69
2022/04/23 00:21:46;;;;;;;18.40;14.18;;;10.90;99.90;;;;;;5145280;27;20071;-69
2022/04/23 00:24:12;;;;;;;17.10;13.57;;;10.80;99.90;;;;;;5127335;27;20051;-69
2022/04/23 00:26:40;;;;;;;17.63;13.50;;;10.80;99.90;;;;;;5142721;27;20116;-68
2022/04/23 00:29:06;;;;;;;17.58;14.32;;;10.80;99.90;;;;;;5146926;27;20102;-69
2022/04/23 00:31:32;;;;;;;17.77;14.45;;;10.70;99.90;;;;;;5145257;27;20288;-69
2022/04/23 00:33:58;;;;;;;17.80;14.48;;;10.70;99.90;;;;;;5146129;27;20402;-68
2022/04/23 00:36:23;;;;;;;18.20;14.00;;;10.80;99.90;;;;;;5145256;27;20049;-69
2022/04/23 00:38:52;;;;;;;18.45;14.40;;;10.90;99.90;;;;;;5146532;27;20043;-69
2022/04/23 00:44:04;;;;;;;17.27;14.63;;;10.90;99.90;;;;;;5145723;27;20035;-69
2022/04/23 00:46:30;;;;;;;16.92;14.18;;;10.90;99.90;;;;;;5136237;27;20130;-69
2022/04/23 00:48:58;;;;;;;16.17;13.80;;;10.90;99.90;;;;;;5146375;27;20159;-69
2022/04/23 00:51:25;;;;;;;17.23;13.65;;;10.70;99.90;;;;;;5146007;27;20051;-68
2022/04/23 00:53:52;;;;;;;14.82;12.15;;;10.60;99.90;;;;;;5140415;27;20043;-69
2022/04/23 00:56:18;;;;;;;14.85;12.70;;;10.70;99.90;;;;;;5138139;27;20047;-69
2022/04/23 00:58:44;;;;;;;16.23;11.80;;;10.70;99.90;;;;;;5124601;27;20099;-69
2022/04/23 01:01:10;;;;;;;13.65;11.23;;;10.60;99.90;;;;;;5128913;27;20043;-68
2022/04/23 01:03:36;;;;;;;17.38;11.68;;;10.60;99.90;;;;;;5146233;27;20039;-68
2022/04/23 01:06:02;;;;;;;14.57;10.75;;;10.70;99.90;;;;;;5142899;27;20047;-68
2022/04/23 01:08:28;;;;;;;16.13;11.35;;;10.70;99.90;;;;;;5143821;27;20050;-68
2022/04/23 01:10:54;;;;;;;18.55;11.07;;;10.70;99.90;;;;;;5146036;27;20087;-69
2022/04/23 01:13:20;;;;;;;13.65;11.45;;;10.80;99.90;;;;;;5146894;27;20543;-68
2022/04/23 01:15:59;;;;;;;14.27;11.23;;;10.70;99.90;;;;;;5143171;27;20106;-68
2022/04/23 01:18:26;;;;;;;16.00;11.80;;;10.80;99.90;;;;;;5146024;27;20039;-68
2022/04/23 01:20:59;;;;;;;15.82;12.43;;;10.60;99.90;;;;;;5146954;27;20042;-69
2022/04/23 01:23:26;;;;;;;16.48;11.90;;;10.50;99.90;;;;;;5122719;27;20074;-69
2022/04/23 01:25:54;;;;;;;14.98;11.70;;;10.60;99.90;;;;;;5144662;27;20079;-69
2022/04/23 01:28:22;;;;;;;15.38;11.20;;;10.50;99.90;;;;;;5145654;27;20051;-68
2022/04/23 01:30:52;;;;;;;14.60;11.77;;;10.60;99.90;;;;;;5144372;27;20099;-69
2022/04/23 01:33:19;;;;;;;15.18;11.25;;;10.60;99.90;;;;;;5144524;27;20059;-69
2022/04/23 01:35:44;;;;;;;13.40;11.18;;;10.50;99.90;;;;;;5146699;27;20094;-69
2022/04/23 01:38:11;;;;;;;14.02;12.00;;;10.40;99.90;;;;;;5142595;27;20073;-68
2022/04/23 01:40:37;;;;;;;16.10;12.23;;;10.50;99.90;;;;;;5133987;27;20039;-69
2022/04/23 01:43:04;;;;;;;15.15;12.52;;;10.50;99.90;;;;;;5108911;28;20047;-69
2022/04/23 01:45:30;;;;;;;16.27;11.23;;;10.50;99.90;;;;;;5129982;27;20043;-69
2022/04/23 01:47:56;;;;;;;13.85;11.80;;;10.50;99.90;;;;;;5126682;28;20078;-69
2022/04/23 01:50:22;;;;;;;16.48;11.40;;;10.40;99.90;;;;;;5126540;28;20051;-69
2022/04/23 01:52:47;;;;;;;14.55;10.73;;;10.40;99.90;;;;;;5126981;28;20044;-69
2022/04/23 01:55:13;;;;;;;13.70;11.25;;;10.40;99.90;;;;;;5126472;28;20047;-68
2022/04/23 01:57:39;;;;;;;15.70;11.80;;;10.30;99.90;;;;;;5126528;28;20036;-69
2022/04/23 02:00:11;;;;;;;15.70;12.13;;;10.30;99.90;;;;;;5126807;28;20124;-69
2022/04/23 02:02:39;;;;;;;14.50;11.70;;;10.20;99.90;;;;;;5130051;27;20099;-69
2022/04/23 02:05:06;;;;;;;13.27;11.40;;;10.30;99.90;;;;;;5147205;27;20436;-69
2022/04/23 02:07:39;;;;;;;15.90;11.95;;;10.30;99.90;;;;;;5144764;27;20506;-68
2022/04/23 02:10:06;;;;;;;15.00;12.30;;;10.20;99.90;;;;;;5133576;27;20059;-69
2022/04/23 02:12:32;;;;;;;14.88;12.90;;;10.20;99.90;;;;;;5137081;27;20051;-69
2022/04/23 02:14:57;;;;;;;22.50;12.93;;;10.20;99.90;;;;;;5134246;27;20043;-69
2022/04/23 02:17:34;;;;;;;16.13;12.23;;;10.10;99.90;;;;;;5118730;27;20050;-69
2022/04/23 02:20:04;;;;;;;17.35;12.40;;;10.30;99.90;;;;;;5124643;28;20043;-68
2022/04/23 02:22:29;;;;;;;16.52;13.10;;;10.20;99.90;;;;;;5140224;27;20450;-69
2022/04/23 02:24:56;;;;;;;15.10;12.57;;;10.20;99.90;;;;;;5125568;27;20072;-68
2022/04/23 02:27:23;;;;;;;16.98;11.98;;;10.20;99.90;;;;;;5121306;27;20047;-69
2022/04/23 02:29:53;;;;;;;15.80;12.43;;;10.10;99.90;;;;;;5146331;27;20089;-69
2022/04/23 02:32:18;;;;;;;18.13;13.20;;;10.10;99.90;;;;;;5145633;27;20083;-68
2022/04/23 02:34:45;;;;;;;14.48;12.25;;;10.40;99.90;;;;;;5145223;27;20047;-69
2022/04/23 02:37:11;;;;;;;16.65;12.57;;;10.00;99.90;;;;;;5146122;27;20039;-69
2022/04/23 02:39:40;;;;;;;18.65;13.27;;;10.10;99.90;;;;;;5144976;27;20065;-69
2022/04/23 02:42:09;;;;;;;15.38;13.02;;;10.10;99.90;;;;;;5144600;27;20074;-69
2022/04/23 02:44:35;;;;;;;15.10;12.38;;;10.10;99.90;;;;;;5146138;27;20503;-69
2022/04/23 02:47:01;;;;;;;14.73;12.35;;;10.00;99.90;;;;;;5127539;27;20043;-69
2022/04/23 02:49:27;;;;;;;14.65;12.48;;;10.00;99.90;;;;;;5125369;28;20064;-69
2022/04/23 02:51:53;;;;;;;19.90;13.20;;;10.20;99.90;;;;;;5144339;27;20122;-68
2022/04/23 02:54:19;;;;;;;19.48;14.07;;;9.90;99.90;;;;;;5145137;27;20405;-69
2022/04/23 02:56:49;;;;;;;17.48;12.93;;;9.90;99.90;;;;;;5127525;27;20059;-68
2022/04/23 02:59:14;;;;;;;;;;;9.80;99.90;;;;;;5145122;27;20050;-68
2022/04/23 03:01:40;;;;;;;18.92;13.35;;;9.80;99.90;;;;;;5144760;27;20347;-69
2022/04/23 03:04:06;;;;;;;17.75;12.85;;;9.80;99.90;;;;;;5127389;27;20043;-68
2022/04/23 03:06:33;;;;;;;17.35;13.18;;;9.80;99.90;;;;;;5127645;27;20098;-69
2022/04/23 03:09:02;;;;;;;18.83;13.70;;;9.80;99.90;;;;;;5145181;27;20047;-69
2022/04/23 03:11:30;;;;;;;19.67;13.45;;;9.70;99.90;;;;;;5145038;27;20163;-69
2022/04/23 03:13:56;;;;;;;18.23;13.88;;;9.70;99.90;;;;;;5135843;27;20039;-69
2022/04/23 03:16:22;;;;;;;19.08;14.10;;;9.60;99.90;;;;;;5144149;27;20094;-68
2022/04/23 03:18:48;;;;;;;19.10;13.02;;;9.80;99.90;;;;;;5144844;27;20071;-68
2022/04/23 03:21:14;;;;;;;17.83;12.95;;;9.90;99.90;;;;;;5144064;27;20184;-69
2022/04/23 03:23:39;;;;;;;19.98;13.82;;;9.70;99.90;;;;;;5146047;27;20066;-68
2022/04/23 03:26:05;;;;;;;20.13;13.60;;;9.60;99.90;;;;;;5144169;27;20106;-68
2022/04/23 03:28:31;;;;;;;15.35;13.52;;;9.60;99.90;;;;;;5145292;27;20043;-68
2022/04/23 03:30:57;;;;;;;19.58;14.10;;;9.50;99.90;;;;;;5144262;27;20297;-68
2022/04/23 03:33:22;;;;;;;16.90;13.60;;;9.60;99.90;;;;;;5145485;28;20047;-69
2022/04/23 03:35:48;;;;;;;18.80;14.00;;;9.30;99.90;;;;;;5144308;28;20068;-68
2022/04/23 03:38:16;;;;;;;18.75;13.93;;;9.30;99.90;;;;;;5143906;28;20051;-68
2022/04/23 03:40:42;;;;;;;18.20;13.82;;;9.40;99.90;;;;;;5139760;28;20044;-68
2022/04/23 03:43:08;;;;;;;18.55;13.98;;;9.40;99.90;;;;;;5125555;28;20122;-69
2022/04/23 03:45:37;;;;;;;16.38;13.27;;;9.40;99.90;;;;;;5127129;28;20050;-68
2022/04/23 03:48:03;;;;;;;16.73;13.68;;;9.30;99.90;;;;;;5123179;28;20055;-68
2022/04/23 03:50:29;;;;;;;17.90;13.38;;;9.40;99.90;;;;;;5124660;28;20480;-69
2022/04/23 03:52:56;;;;;;;17.65;13.27;;;9.40;99.90;;;;;;5124821;28;20130;-68
2022/04/23 03:55:24;;;;;;;15.93;13.25;;;9.30;99.90;;;;;;5124282;28;20495;-68
2022/04/23 03:57:50;;;;;;;16.10;12.85;;;9.20;99.90;;;;;;5123271;28;20043;-69
2022/04/23 04:00:21;;;;;;;17.73;13.60;;;9.30;99.90;;;;;;5123314;28;20040;-68
2022/04/23 04:02:48;;;;;;;15.25;13.15;;;9.10;99.90;;;;;;5129122;28;20039;-68
2022/04/23 04:05:14;;;;;;;15.85;13.07;;;9.20;99.90;;;;;;5126908;28;20047;-68
2022/04/23 04:07:44;;;;;;;15.35;12.98;;;9.00;99.90;;;;;;5144189;28;20048;-68
2022/04/23 04:10:18;;;;;;;18.90;13.65;;;9.10;99.90;;;;;;5143822;28;20043;-68
2022/04/23 04:12:44;;;;;;;17.60;14.68;;;9.00;99.90;;;;;;5135402;28;20530;-68
2022/04/23 04:15:11;;;;;;;17.52;14.27;;;9.00;99.90;;;;;;5144792;28;20047;-68
2022/04/23 04:17:39;;;;;;;15.05;13.27;;;9.00;99.90;;;;;;5143520;28;20047;-69
2022/04/23 04:20:11;;;;;;;15.20;13.05;;;9.00;99.90;;;;;;5144199;28;20051;-68
2022/04/23 04:22:41;;;;;;;17.67;14.32;;;9.10;99.90;;;;;;5144231;28;20077;-68
2022/04/23 04:25:07;;;;;;;16.02;13.77;;;9.00;99.90;;;;;;5143948;28;20521;-68
2022/04/23 04:27:34;;;;;;;16.85;13.18;;;9.00;99.90;;;;;;5143451;28;20051;-68
2022/04/23 04:30:01;;;;;;;18.40;14.07;;;9.10;99.90;;;;;;5143366;27;20071;-68
2022/04/23 04:32:27;;;;;;;16.90;13.70;;;9.00;99.90;;;;;;5148748;27;20054;-68
2022/04/23 04:34:53;;;;;;;17.00;14.10;;;9.00;99.90;;;;;;5147422;27;20047;-68
2022/04/23 04:37:18;;;;;;;18.42;14.20;;;9.00;99.90;;;;;;5147175;27;20051;-68
2022/04/23 04:39:44;;;;;;;17.00;14.45;;;9.10;99.90;;;;;;5145997;27;20039;-68
2022/04/23 04:42:11;;;;;;;17.10;14.02;;;9.10;99.90;;;;;;5137751;27;20047;-68
2022/04/23 04:44:38;;;;;;;17.23;13.90;;;9.00;99.90;;;;;;5139995;27;20047;-68
2022/04/23 04:47:04;;;;;;;15.43;13.82;;;8.90;99.90;;;;;;5144662;27;20058;-69
2022/04/23 04:49:31;;;;;;;15.18;12.77;;;8.90;99.90;;;;;;5143671;27;20116;-69
2022/04/23 04:51:56;;;;;;;19.75;13.73;;;9.00;99.90;;;;;;5143366;27;20051;-69
2022/04/23 04:54:22;;;;;;;15.52;13.43;;;9.20;99.90;;;;;;5148559;27;20051;-69
2022/04/23 04:56:49;;;;;;;17.60;13.02;;;9.10;99.90;;;;;;5145161;27;20368;-68
2022/04/23 04:59:15;;;;;;;16.75;13.75;;;9.00;99.90;;;;;;5126666;27;20051;-68
2022/04/23 05:01:41;;;;;;;16.60;14.77;;;9.20;99.90;;;;;;5128129;27;20074;-68
2022/04/23 05:04:07;;;;;;;15.68;14.05;;;9.10;99.90;;;;;;5144451;27;20051;-68
2022/04/23 05:06:33;;;;;;;16.70;14.48;;;9.10;99.90;;;;;;5141583;27;20059;-68
2022/04/23 05:08:58;;;;;;;16.10;13.90;;;9.30;99.90;;;;;;5147372;27;20039;-68
2022/04/23 05:11:24;;;;;;;15.98;14.07;;;9.40;99.90;;;;;;5143356;27;20086;-68
2022/04/23 05:13:51;;;;;;;15.85;13.85;;;9.50;99.90;;;;;;5145963;27;20043;-68
2022/04/23 05:16:17;;;;;;;15.02;12.88;;;9.40;99.90;;;;;;5145606;27;20031;-68
2022/04/23 05:18:43;;;;;;;16.05;13.43;;;9.40;99.90;;;;;;5143636;27;20563;-68
2022/04/23 05:21:08;;;;;;;15.57;13.23;;;9.30;99.90;;;;;;5142609;27;20059;-68
2022/04/23 05:23:35;;;;;;;15.27;13.73;;;9.40;99.90;;;;;;5146673;27;20080;-68
2022/04/23 05:26:03;;;;;;;16.70;14.05;;;9.50;99.90;;;;;;5145093;27;20065;-68
2022/04/23 05:28:30;;;;;;;18.10;14.70;;;9.50;99.90;;;;;;5145290;27;20051;-68
2022/04/23 05:30:55;;;;;;;15.35;13.32;;;9.50;99.90;;;;;;5147190;27;20038;-68
2022/04/23 05:33:21;;;;;;;17.92;15.60;;;9.70;99.90;;;;;;5146666;27;20051;-68
2022/04/23 05:35:47;;;;;;;16.33;14.25;;;9.70;99.90;;;;;;5141188;27;20043;-68
2022/04/23 05:38:13;;;;;;;15.18;13.07;;;9.80;99.90;;;;;;5145105;27;20055;-68
2022/04/23 05:40:38;;;;;;;18.30;14.68;;;9.80;99.90;;;;;;5146724;27;20024;-69
2022/04/23 05:43:04;;;;;;;16.17;14.07;;;9.70;99.90;;;;;;5143950;27;20051;-68
2022/04/23 05:45:31;;;;;;;16.25;14.63;;;10.00;99.90;;;;;;5142189;27;20035;-68
2022/04/23 05:47:57;;;;;;;15.35;13.82;;;10.10;99.90;;;;;;5140786;27;20039;-68
2022/04/23 05:50:23;;;;;;;15.82;13.40;;;10.10;99.90;;;;;;5138538;27;20047;-68
2022/04/23 05:52:49;;;;;;;15.65;13.32;;;10.30;99.90;;;;;;5121855;27;20484;-68
2022/04/23 05:55:16;;;;;;;16.80;13.85;;;10.20;99.90;;;;;;5144648;27;20063;-68
2022/04/23 05:57:41;;;;;;;18.65;14.23;;;10.40;99.90;;;;;;5143502;27;20050;-68
2022/04/23 06:00:09;;;;;;;16.25;13.43;;;10.40;99.90;;;;;;5144586;27;20051;-68
2022/04/23 06:02:35;;;;;;;15.15;13.63;;;10.30;99.90;;;;;;5141662;27;20449;-68
2022/04/23 06:05:02;;;;;;;17.58;14.18;;;10.30;99.90;;;;;;5139208;27;20073;-68
2022/04/23 06:07:28;;;;;;;17.20;14.75;;;10.30;99.90;;;;;;5143172;27;20103;-69
2022/04/23 06:09:54;;;;;;;15.57;13.55;;;10.30;99.90;;;;;;5142217;27;20047;-69
2022/04/23 06:12:20;;;;;;;17.10;14.05;;;10.40;99.90;;;;;;5146154;27;20067;-68
2022/04/23 06:14:46;;;;;;;15.32;13.23;;;10.50;99.90;;;;;;5144416;27;20099;-68
2022/04/23 06:17:12;;;;;;;16.63;13.70;;;10.50;99.90;;;;;;5147030;27;20030;-69
2022/04/23 06:19:43;;;;;;;16.38;14.23;;;10.60;99.90;;;;;;5140999;27;20046;-68
2022/04/23 06:22:08;;;;;;;;;;;10.60;99.90;;;;;;5146681;27;20047;-68
2022/04/23 06:24:34;;;;;;;16.85;13.85;;;10.60;99.90;;;;;;5143652;27;19927;-69
2022/04/23 06:27:01;;;;;;;16.88;14.95;;;10.70;99.90;;;;;;5142320;27;20039;-69
2022/04/23 06:29:27;;;;;;;14.77;13.27;;;10.80;99.90;;;;;;5140472;27;20043;-69
2022/04/23 06:31:52;;;;;;;16.48;14.73;;;10.90;99.90;;;;;;5140062;27;20434;-68
2022/04/23 06:34:20;;;;;;;16.02;14.02;;;10.90;99.90;;;;;;5140674;27;20038;-68
2022/04/23 06:36:45;;;;;;;15.55;13.88;;;10.90;99.90;;;;;;5140889;27;20054;-69
2022/04/23 06:39:11;;;;;;;16.85;14.25;;;11.10;99.90;;;;;;5145030;27;20043;-69
2022/04/23 06:41:37;;;;;;;15.90;13.10;;;11.20;99.90;;;;;;5142385;27;20634;-69
2022/04/23 06:44:03;;;;;;;18.88;14.18;;;11.20;99.90;;;;;;5145559;27;20057;-68
2022/04/23 06:46:28;;;;;;;15.23;13.63;;;11.30;99.90;;;;;;5142375;27;20047;-68
2022/04/23 06:48:54;;;;;;;17.38;14.70;;;11.50;99.90;;;;;;5145783;27;20055;-69
2022/04/23 06:51:20;;;;;;;17.52;14.13;;;11.40;99.90;;;;;;5146415;27;20122;-69
2022/04/23 06:53:46;;;;;;;15.45;13.73;;;11.40;99.90;;;;;;5144558;27;20058;-69
2022/04/23 06:56:11;;;;;;;16.30;14.23;;;11.50;99.90;;;;;;5141493;27;20039;-69
2022/04/23 06:58:37;;;;;;;15.93;13.95;;;11.50;99.90;;;;;;5141411;27;20050;-69
2022/04/23 07:01:06;;;;;;;19.48;14.43;;;11.50;99.90;;;;;;5143335;27;20050;-69
2022/04/23 07:03:32;;;;;;;18.10;14.88;;;11.50;99.90;;;;;;5137370;27;20047;-69
2022/04/23 07:05:57;;;;;;;17.30;13.65;;;11.60;99.90;;;;;;5142806;27;20046;-68
2022/04/23 07:08:23;;;;;;;14.50;12.93;;;11.80;99.90;;;;;;5144501;27;20043;-69
2022/04/23 07:10:49;;;;;;;16.88;13.85;;;11.80;99.90;;;;;;5142229;27;20039;-68
2022/04/23 07:13:15;;;;;;;14.82;13.23;;;11.90;99.90;;;;;;5143948;27;20063;-68
2022/04/23 07:15:41;;;;;;;15.27;13.60;;;12.00;99.90;;;;;;5141799;27;20054;-68
2022/04/23 07:18:08;;;;;;;14.63;13.02;;;12.20;99.90;;;;;;5142499;27;20044;-68
2022/04/23 07:20:34;;;;;;;15.55;12.98;;;12.10;99.90;;;;;;5142170;27;20077;-68
2022/04/23 07:25:45;;;;;;;15.63;13.98;;;12.20;99.90;;;;;;5137570;27;20104;-68
2022/04/23 07:28:11;;;;;;;14.98;12.77;;;12.40;99.90;;;;;;5138951;27;20047;-68
2022/04/23 07:30:37;;;;;;;16.17;13.20;;;12.60;99.90;;;;;;5144384;27;20043;-68
2022/04/23 07:33:04;;;;;;;16.13;12.82;;;12.50;99.90;;;;;;5143663;28;20119;-68
2022/04/23 07:38:17;;;;;;;14.00;12.48;;;12.60;99.90;;;;;;5144255;28;20394;-68
2022/04/23 07:40:44;;;;;;;17.15;12.82;;;12.70;99.90;;;;;;5143823;28;20046;-68
2022/04/23 07:43:14;;;;;;;21.02;12.70;;;12.90;99.90;;;;;;5141419;28;20035;-68
2022/04/23 07:45:41;;;;;;;13.95;12.55;;;12.90;99.90;;;;;;5142887;28;20043;-69
2022/04/23 07:48:09;;;;;;;13.55;11.85;;;13.00;99.90;;;;;;5138340;28;20051;-68
2022/04/23 07:50:36;;;;;;;12.73;11.43;;;13.00;99.90;;;;;;5135915;28;20055;-69
2022/04/23 07:53:02;;;;;;;12.77;11.30;;;12.80;99.90;;;;;;5120028;28;20482;-69
2022/04/23 07:55:36;;;;;;;12.07;10.88;;;13.00;99.90;;;;;;5142922;28;20100;-69
2022/04/23 07:58:06;;;;;;;14.15;12.68;;;12.80;99.90;;;;;;5143094;28;20043;-69
2022/04/23 08:00:36;;;;;;;15.55;11.57;;;12.90;99.90;;;;;;5144387;28;20039;-69
2022/04/23 08:03:03;;;;;;;13.20;11.55;;;13.00;99.90;;;;;;5124349;28;20376;-69
2022/04/23 08:05:32;;;;;;;12.85;11.40;;;13.20;99.90;;;;;;5140738;27;20043;-69
2022/04/23 08:07:59;;;;;;;16.80;11.95;;;13.30;99.90;;;;;;5146475;27;20113;-68
2022/04/23 08:10:24;;;;;;;15.23;12.15;;;13.40;99.90;;;;;;5146774;27;20035;-69
2022/04/23 08:12:50;;;;;;;14.63;11.18;;;13.30;99.90;;;;;;5147523;27;20058;-69
2022/04/23 08:15:16;;;;;;;36.08;12.40;;;13.40;99.90;;;;;;5145795;27;20043;-69
2022/04/23 08:17:42;;;;;;;14.32;11.05;;;13.50;99.90;;;;;;5145863;27;20039;-69
2022/04/23 08:20:09;;;;;;;13.00;11.65;;;13.50;99.90;;;;;;5138434;27;20043;-69
2022/04/23 08:22:35;;;;;;;12.15;10.85;;;13.30;99.90;;;;;;5147146;27;20024;-69
2022/04/23 08:25:01;;;;;;;17.70;12.43;;;13.40;99.90;;;;;;5148122;27;20043;-69
2022/04/23 08:27:27;;;;;;;15.02;11.30;;;13.50;99.90;;;;;;5143061;27;20039;-69
2022/04/23 08:32:37;;;;;;;12.30;11.02;;;13.70;99.90;;;;;;5144233;27;20051;-69
2022/04/23 08:35:06;;;;;;;18.60;11.32;;;13.90;99.90;;;;;;5148462;27;20043;-69
2022/04/23 08:37:34;;;;;;;14.57;11.50;;;14.10;99.90;;;;;;5146667;27;20050;-69
2022/04/23 08:40:00;;;;;;;13.20;11.80;;;14.20;99.90;;;;;;5149523;27;20047;-69
2022/04/23 08:42:26;;;;;;;22.48;11.48;;;14.20;99.90;;;;;;5144005;27;20035;-68
2022/04/23 08:44:53;;;;;;;15.27;11.85;;;14.40;99.90;;;;;;5138146;27;20041;-67
2022/04/23 08:47:23;;;;;;;16.38;10.73;;;14.40;99.90;;;;;;5147167;27;20039;-68
2022/04/23 08:49:53;;;;;;;;;;;14.60;99.90;;;;;;5145742;27;20058;-70
2022/04/23 08:52:32;;;;;;;16.60;11.38;;;14.80;99.90;;;;;;5146595;27;19919;-70
2022/04/23 08:55:04;;;;;;;16.58;11.52;;;14.70;99.90;;;;;;5140874;27;20043;-67
2022/04/23 08:57:30;;;;;;;15.93;10.90;;;14.80;99.90;;;;;;5138501;27;20216;-68
2022/04/23 08:59:56;;;;;;;12.77;11.18;;;14.80;99.90;;;;;;5145943;27;20039;-69
2022/04/23 09:02:27;;;;;;;12.88;10.98;;;14.70;99.90;;;;;;5146225;27;20047;-69
2022/04/23 09:04:56;;;;;;;15.68;11.73;;;14.60;99.90;;;;;;5146001;27;20054;-70
2022/04/23 09:07:24;;;;;;;13.55;10.30;;;14.80;99.90;;;;;;5145516;27;20035;-69
2022/04/23 09:09:55;;;;;;;12.32;10.70;;;14.80;99.90;;;;;;5145590;27;20047;-69
2022/04/23 09:12:25;;;;;;;12.32;10.98;;;14.80;99.90;;;;;;5131037;27;20040;-70
2022/04/23 09:14:51;;;;;;;11.82;10.52;;;14.90;99.90;;;;;;5144794;27;20047;-70
2022/04/23 09:25:40;;;;;;;13.50;9.93;;;15.00;99.90;;;;;;5134440;27;20051;-68
2022/04/23 09:28:21;;;;;;;11.32;9.23;;;15.10;99.90;;;;;;5138128;27;20091;-68
2022/04/23 09:30:49;;;;;;;15.60;11.35;;;15.30;99.90;;;;;;5140230;27;20407;-69
2022/04/23 09:33:15;;;;;;;15.18;10.60;;;15.30;99.90;;;;;;5130610;27;20055;-69
2022/04/23 09:35:54;;;;;;;13.25;10.88;;;15.30;99.90;;;;;;5146770;27;20043;-68
2022/04/23 09:38:20;;;;;;;12.90;9.35;;;15.40;99.90;;;;;;5144840;27;20043;-69
2022/04/23 09:40:56;;;;;;;13.50;10.77;;;15.40;99.90;;;;;;5146499;27;20031;-69
2022/04/23 09:43:30;;;;;;;14.30;10.63;;;15.30;99.90;;;;;;5139868;27;20047;-68
2022/04/23 09:46:00;;;;;;;13.00;11.15;;;15.20;99.90;;;;;;5127660;27;20040;-69
2022/04/23 09:48:26;;;;;;;12.40;10.05;;;15.20;99.90;;;;;;5145582;27;20078;-68
2022/04/23 09:50:51;;;;;;;11.05;9.30;;;15.10;99.90;;;;;;5147950;27;20055;-68
2022/04/23 09:53:20;;;;;;;13.80;10.23;;;15.20;99.90;;;;;;5143949;27;20047;-69
2022/04/23 09:55:46;;;;;;;11.98;10.07;;;15.40;99.90;;;;;;5142401;27;20039;-70
2022/04/23 09:58:13;;;;;;;13.50;9.95;;;15.60;99.90;;;;;;5140768;27;20100;-71
2022/04/23 10:00:41;;;;;;;13.30;11.05;;;15.80;99.90;;;;;;5122655;27;20035;-68
2022/04/23 10:03:08;;;;;;;13.65;10.68;;;15.70;99.90;;;;;;5137977;27;20067;-68
2022/04/23 10:05:38;;;;;;;12.07;10.27;;;15.80;99.90;;;;;;5146115;27;20051;-68
2022/04/23 10:08:13;;;;;;;14.73;10.95;;;15.80;99.90;;;;;;5141684;27;20057;-68
2022/04/23 10:10:51;;;;;;;12.70;11.20;;;16.00;99.90;;;;;;5145139;27;20070;-68
2022/04/23 10:13:20;;;;;;;15.88;10.73;;;16.10;99.90;;;;;;5143455;27;20046;-68
2022/04/23 10:15:47;;;;;;;12.93;10.35;;;16.10;99.90;;;;;;5142242;27;20055;-68
2022/04/23 10:18:14;;;;;;;11.70;9.85;;;16.20;99.90;;;;;;5140331;27;20477;-68
2022/04/23 10:20:41;;;;;;;11.63;9.52;;;16.20;99.90;;;;;;5145676;27;20081;-68
2022/04/23 10:23:35;;;;;;;11.18;10.07;;;16.20;99.90;;;;;;5138487;27;20039;-68
2022/04/23 10:26:25;;;;;;;11.80;10.15;;;16.60;99.90;;;;;;5138074;27;20118;-65
2022/04/23 10:28:51;;;;;;;10.70;9.23;;;16.60;99.90;;;;;;5141285;27;20047;-65
2022/04/23 10:31:18;;;;;;;10.82;9.70;;;16.50;99.90;;;;;;5140091;27;20046;-65
2022/04/23 10:33:51;;;;;;;10.60;9.55;;;16.60;99.90;;;;;;5143259;27;20043;-65
2022/04/23 10:36:18;;;;;;;12.63;10.02;;;16.60;99.90;;;;;;5145612;27;20107;-65
2022/04/23 10:38:51;;;;;;;12.52;10.45;;;16.50;99.90;;;;;;5142988;27;20047;-65
2022/04/23 10:41:22;;;;;;;12.93;11.60;;;16.40;99.90;;;;;;5146479;27;20058;-69
2022/04/23 10:43:58;;;;;;;15.70;12.07;;;16.40;99.90;;;;;;5141758;27;20035;-65
2022/04/23 10:46:41;;;;;;;13.75;11.05;;;16.60;99.90;;;;;;5141951;27;20050;-64
2022/04/23 10:49:14;;;;;;;16.75;12.57;;;16.60;99.90;;;;;;5144209;27;20035;-65
2022/04/23 10:51:56;;;;;;;13.93;11.27;;;16.80;99.90;;;;;;5142574;27;20051;-65
2022/04/23 10:54:40;;;;;;;14.52;11.80;;;16.80;99.90;;;;;;5140218;27;20050;-65
2022/04/23 10:57:13;;;;;;;12.20;10.25;;;16.70;99.90;;;;;;5140907;27;20098;-65
2022/04/23 10:59:49;;;;;;;15.25;10.60;;;16.80;99.90;;;;;;5138699;27;20075;-65
2022/04/23 11:02:24;;;;;;;11.18;9.98;;;17.00;99.90;;;;;;5144135;27;20110;-65
2022/04/23 11:13:35;;;;;;;12.27;10.60;;;17.20;99.90;;;;;;5138445;27;20049;-64
2022/04/23 11:16:06;;;;;;;12.85;10.63;;;17.30;99.40;;;;;;5125496;27;20062;-64
2022/04/23 11:18:33;;;;;;;16.52;11.68;;;17.30;99.20;;;;;;5142085;27;20051;-64
2022/04/23 11:21:14;;;;;;;13.63;10.68;;;17.40;99.90;;;;;;5144762;27;20035;-64
2022/04/23 11:23:45;;;;;;;13.07;11.85;;;17.50;98.80;;;;;;5143447;27;20046;-64
2022/04/23 11:26:14;;;;;;;11.75;10.52;;;17.40;97.80;;;;;;5146288;27;20101;-64
2022/04/23 11:28:41;;;;;;;13.57;12.23;;;17.40;98.80;;;;;;5143777;27;20123;-64
2022/04/23 11:31:15;;;;;;;12.07;10.65;;;17.40;96.70;;;;;;5143800;27;20054;-65
2022/04/23 11:33:55;;;;;;;11.15;10.02;;;17.60;97.70;;;;;;5124459;28;20079;-64
2022/04/23 11:36:31;;;;;;;17.92;11.35;;;17.70;95.70;;;;;;5144081;28;20047;-64
2022/04/23 11:38:59;;;;;;;13.55;11.45;;;17.70;97.80;;;;;;5140033;28;20368;-64
2022/04/23 11:41:29;;;;;;;63.97;16.60;;;17.70;96.40;;;;;;5134913;27;20048;-64
2022/04/23 11:43:55;;;;;;;71.95;18.27;;;17.70;94.80;;;;;;5108392;27;20047;-64
2022/04/23 11:46:20;;;;;;;32.63;13.82;;;17.60;97.10;;;;;;5130602;27;20043;-64
2022/04/23 11:48:48;;;;;;;24.50;11.52;;;17.70;96.60;;;;;;5130727;27;20036;-63
2022/04/23 11:51:21;;;;;;;12.07;10.57;;;17.90;96.20;;;;;;5146316;27;20103;-64
2022/04/23 11:53:53;;;;;;;29.73;11.75;;;17.80;93.30;;;;;;5135210;27;20058;-64
2022/04/23 11:56:23;;;;;;;21.10;11.07;;;17.80;93.30;;;;;;5113278;27;20051;-64
2022/04/23 11:58:52;;;;;;;9.95;8.93;;;17.80;92.90;;;;;;5104210;27;20086;-65
2022/04/23 12:01:20;;;;;;;10.10;9.10;;;17.80;92.20;;;;;;5116483;27;20039;-65
2022/04/23 12:03:56;;;;;;;14.18;10.82;;;17.80;92.90;;;;;;5114178;27;20285;-64
2022/04/23 12:06:23;;;;;;;9.75;8.38;;;17.90;92.60;;;;;;5092974;27;20132;-64
2022/04/23 12:08:49;;;;;;;11.38;10.18;;;18.00;90.90;;;;;;5136963;27;20053;-65
2022/04/23 12:11:22;;;;;;;8.93;8.02;;;18.10;90.80;;;;;;5094440;27;20114;-65
2022/04/23 12:13:50;;;;;;;11.80;7.63;;;18.10;90.50;;;;;;5114053;28;20122;-64
2022/04/23 12:16:38;;;;;;;10.77;7.35;;;18.10;78.90;;;;;;5104198;27;20066;-65
2022/04/23 12:19:09;;;;;;;11.85;8.07;;;18.10;83.00;;;;;;5110006;27;20039;-65
2022/04/23 12:21:36;;;;;;;10.13;7.88;;;18.10;78.50;;;;;;5103767;27;20043;-65
2022/04/23 12:24:03;;;;;;;8.35;7.40;;;18.30;82.20;;;;;;5113124;27;20058;-65
2022/04/23 12:26:36;;;;;;;8.73;7.90;;;18.30;83.60;;;;;;5120259;27;20059;-65
2022/04/23 12:43:20;;;;;;;10.45;8.00;;;18.90;77.70;;;;;;5103943;27;20046;-64
2022/04/23 12:45:48;;;;;;;11.52;8.02;;;19.20;68.50;;;;;;5085719;27;20074;-64
2022/04/23 12:48:14;;;;;;;10.80;6.93;;;19.30;69.60;;;;;;5142392;27;20066;-64
2022/04/23 12:50:40;;;;;;;8.57;7.38;;;19.40;65.60;;;;;;5119904;27;20054;-65
2022/04/23 12:53:06;;;;;;;11.20;10.30;;;19.40;65.50;;;;;;5158670;27;20094;-65
2022/04/23 12:55:36;;;;;;;7.88;7.13;;;19.30;66.60;;;;;;5129834;27;20059;-65
2022/04/23 12:58:08;;;;;;;9.60;6.63;;;19.20;66.20;;;;;;5130679;27;20051;-65
2022/04/23 13:00:36;;;;;;;8.48;6.75;;;19.30;63.40;;;;;;5148495;27;20046;-65
2022/04/23 13:03:34;;;;;;;7.90;7.03;;;19.30;64.90;;;;;;5133757;27;20157;-65
2022/04/23 13:06:00;;;;;;;11.13;6.85;;;19.40;63.10;;;;;;5114749;27;20051;-65
2022/04/23 13:11:30;;;;;;;12.95;11.65;;;19.40;61.30;;;;;;5112533;27;20050;-64
2022/04/23 13:13:58;;;;;;;10.43;8.65;;;19.80;64.20;;;;;;5131951;27;20094;-65
2022/04/23 13:16:25;;;;;;;8.52;7.72;;;19.90;65.30;;;;;;5128387;27;20050;-65
2022/04/23 13:19:03;;;;;;;8.45;7.65;;;19.80;66.20;;;;;;5130669;27;20061;-65
2022/04/23 13:21:31;;;;;;;11.80;7.05;;;20.00;65.90;;;;;;5106870;27;20059;-65
2022/04/23 13:23:57;;;;;;;8.55;7.75;;;20.20;62.20;;;;;;5126721;27;20123;-65